createdAt,value
2022-11-28T00:01:04.588Z,1.62
2022-11-28T00:04:10.105Z,1.66
2022-11-28T00:07:17.269Z,1.65
2022-11-28T00:10:20.887Z,1.61
2022-11-28T00:13:24.473Z,1.58
2022-11-28T00:16:44.169Z,1.19
2022-11-28T00:19:47.743Z,1.71
2022-11-28T00:22:52.284Z,1.70
2022-11-28T00:26:00.120Z,1.75
2022-11-28T00:29:07.751Z,1.94
2022-11-28T00:32:10.999Z,1.83
2022-11-28T00:35:14.254Z,1.64
2022-11-28T00:38:19.448Z,1.67
2022-11-28T00:41:25.231Z,1.61
2022-11-28T00:44:31.080Z,1.82
2022-11-28T00:47:36.741Z,1.77
2022-11-28T00:50:40.446Z,1.66
2022-11-28T00:53:49.432Z,1.65
2022-11-28T00:56:52.726Z,1.66
2022-11-28T00:59:56.144Z,1.79
2022-11-28T01:02:59.513Z,1.46
2022-11-28T01:06:02.895Z,1.77
2022-11-28T01:09:11.572Z,1.79
2022-11-28T01:12:14.924Z,1.75
2022-11-28T01:15:18.754Z,2.03
2022-11-28T01:18:24.164Z,1.75
2022-11-28T01:21:27.869Z,1.72
2022-11-28T01:24:32.415Z,1.84
2022-11-28T01:27:35.632Z,1.51
2022-11-28T01:30:39.148Z,1.74
2022-11-28T01:33:42.601Z,1.74
2022-11-28T01:36:45.854Z,1.72
2022-11-28T01:39:51.695Z,1.80
2022-11-28T01:42:57.016Z,1.69
2022-11-28T01:46:00.581Z,1.91
2022-11-28T01:49:11.977Z,1.88
2022-11-28T01:52:19.970Z,1.82
2022-11-28T01:55:28.566Z,1.94
2022-11-28T01:58:34.239Z,1.93
2022-11-28T02:01:38.649Z,1.88
2022-11-28T02:04:46.041Z,1.63
2022-11-28T02:07:54.650Z,1.89
2022-11-28T02:11:24.041Z,1.86
2022-11-28T02:14:35.935Z,1.83
2022-11-28T02:17:53.670Z,1.86
2022-11-28T02:21:32.831Z,1.98
2022-11-28T02:25:04.264Z,2.03
2022-11-28T02:28:31.158Z,1.84
2022-11-28T02:32:03.291Z,1.91
2022-11-28T02:35:13.374Z,1.91
2022-11-28T02:38:23.681Z,1.85
2022-11-28T02:41:35.206Z,1.83
2022-11-28T02:44:44.648Z,2.02
2022-11-28T02:47:53.126Z,1.85
2022-11-28T02:51:02.467Z,1.81
2022-11-28T02:54:10.353Z,1.92
2022-11-28T02:57:13.732Z,1.88
2022-11-28T03:00:26.817Z,2.01
2022-11-28T03:03:43.591Z,1.91
2022-11-28T03:06:59.994Z,2.01
2022-11-28T03:10:20.577Z,1.96
2022-11-28T03:13:37.770Z,2.05
2022-11-28T03:16:47.459Z,2.12
2022-11-28T03:19:58.860Z,2.04
2022-11-28T03:23:15.620Z,2.01
2022-11-28T03:26:25.774Z,1.97
2022-11-28T03:29:36.003Z,1.97
2022-11-28T03:32:41.400Z,2.00
2022-11-28T03:35:53.055Z,2.00
2022-11-28T03:39:02.371Z,1.99
2022-11-28T03:42:11.002Z,2.06
2022-11-28T03:45:22.950Z,2.02
2022-11-28T03:48:31.316Z,2.15
2022-11-28T03:51:41.991Z,2.06
2022-11-28T03:54:52.171Z,2.01
2022-11-28T03:58:01.035Z,2.01
2022-11-28T04:01:13.457Z,1.83
2022-11-28T04:04:27.071Z,2.27
2022-11-28T04:07:37.851Z,2.29
2022-11-28T04:10:50.251Z,2.05
2022-11-28T04:14:01.820Z,2.13
2022-11-28T04:17:12.112Z,2.44
2022-11-28T04:20:24.696Z,2.03
2022-11-28T04:23:29.251Z,2.02
2022-11-28T04:26:36.820Z,2.25
2022-11-28T04:29:46.163Z,2.07
2022-11-28T04:35:06.295Z,2.21
2022-11-28T04:38:12.696Z,1.95
2022-11-28T04:41:21.519Z,1.99
2022-11-28T04:44:32.429Z,2.15
2022-11-28T04:47:36.380Z,2.13
2022-11-28T04:50:50.021Z,2.01
2022-11-28T04:54:00.660Z,2.20
2022-11-28T04:57:16.270Z,2.62
2022-11-28T05:00:21.098Z,1.89
2022-11-28T05:03:29.458Z,2.25
2022-11-28T05:06:36.161Z,1.96
2022-11-28T05:09:39.538Z,1.81
2022-11-28T05:12:43.311Z,2.06
2022-11-28T05:15:46.709Z,2.03
2022-11-28T05:18:50.227Z,2.05
2022-11-28T05:21:55.162Z,2.06
2022-11-28T05:25:00.831Z,1.91
2022-11-28T05:28:04.135Z,2.12
2022-11-28T05:31:07.743Z,2.17
2022-11-28T05:34:11.051Z,2.25
2022-11-28T05:37:17.136Z,2.05
2022-11-28T05:40:20.557Z,2.15
2022-11-28T05:43:26.980Z,2.06
2022-11-28T05:46:30.884Z,1.97
2022-11-28T05:49:34.050Z,2.10
2022-11-28T05:52:39.105Z,2.03
2022-11-28T05:55:42.823Z,2.11
2022-11-28T05:58:50.150Z,2.10
2022-11-28T06:01:53.736Z,1.98
2022-11-28T06:04:57.406Z,2.10
2022-11-28T06:08:02.102Z,2.18
2022-11-28T06:11:14.985Z,2.16
2022-11-28T06:14:54.151Z,2.10
2022-11-28T06:18:35.981Z,2.16
2022-11-28T06:27:06.780Z,2.27
2022-11-28T06:30:15.031Z,2.17
2022-11-28T06:33:22.912Z,2.06
2022-11-28T06:36:31.466Z,2.07
2022-11-28T06:39:34.827Z,2.09
2022-11-28T06:42:43.925Z,2.27
2022-11-28T06:45:50.161Z,2.27
2022-11-28T06:48:54.214Z,2.11
2022-11-28T06:52:00.850Z,1.94
2022-11-28T06:55:04.728Z,2.09
2022-11-28T06:58:10.554Z,2.13
2022-11-28T07:01:16.767Z,2.13
2022-11-28T07:04:20.153Z,2.02
2022-11-28T07:07:26.121Z,2.26
2022-11-28T07:10:32.122Z,2.36
2022-11-28T07:13:37.803Z,2.27
2022-11-28T07:16:42.836Z,2.18
2022-11-28T07:19:49.349Z,2.08
2022-11-28T07:22:56.924Z,2.13
2022-11-28T07:26:00.648Z,1.96
2022-11-28T07:29:07.311Z,1.76
2022-11-28T07:32:13.702Z,2.07
2022-11-28T07:35:17.341Z,2.32
2022-11-28T07:38:21.081Z,2.27
2022-11-28T07:41:27.788Z,2.25
2022-11-28T07:44:32.922Z,2.22
2022-11-28T07:47:39.318Z,2.28
2022-11-28T07:50:42.939Z,2.33
2022-11-28T07:53:47.915Z,2.37
2022-11-28T08:00:17.847Z,2.44
2022-11-28T08:03:21.596Z,2.40
2022-11-28T08:06:27.110Z,2.39
2022-11-28T08:09:32.106Z,2.34
2022-11-28T08:12:35.379Z,2.39
2022-11-28T08:15:40.624Z,2.36
2022-11-28T08:18:44.603Z,2.43
2022-11-28T08:21:50.698Z,2.35
2022-11-28T08:24:54.323Z,2.45
2022-11-28T08:27:57.896Z,2.35
2022-11-28T08:31:10.066Z,2.39
2022-11-28T08:34:13.591Z,2.39
2022-11-28T08:37:16.764Z,2.47
2022-11-28T08:40:20.305Z,2.57
2022-11-28T08:43:23.723Z,2.56
2022-11-28T08:46:28.550Z,2.57
2022-11-28T08:49:35.113Z,2.60
2022-11-28T08:52:39.032Z,2.65
2022-11-28T08:55:44.956Z,2.67
2022-11-28T08:58:49.031Z,2.70
2022-11-28T09:01:54.815Z,2.81
2022-11-28T09:04:58.371Z,2.74
2022-11-28T09:08:07.817Z,2.78
2022-11-28T09:11:16.951Z,2.84
2022-11-28T09:14:23.199Z,2.83
2022-11-28T09:17:28.279Z,2.82
2022-11-28T09:20:32.003Z,3.03
2022-11-28T09:23:37.624Z,3.08
2022-11-28T09:26:41.375Z,3.20
2022-11-28T09:29:50.046Z,3.02
2022-11-28T09:32:58.049Z,2.97
2022-11-28T09:36:06.056Z,3.03
2022-11-28T09:39:09.703Z,3.03
2022-11-28T09:42:23.669Z,3.11
2022-11-28T09:45:27.133Z,3.17
2022-11-28T09:48:38.036Z,3.15
2022-11-28T09:51:49.044Z,3.05
2022-11-28T09:55:02.110Z,3.32
2022-11-28T09:58:15.130Z,3.20
2022-11-28T10:01:28.395Z,3.34
2022-11-28T10:04:42.326Z,3.29
2022-11-28T10:08:07.639Z,3.44
2022-11-28T10:11:26.447Z,3.25
2022-11-28T10:14:51.837Z,3.27
2022-11-28T10:18:07.093Z,3.92
2022-11-28T10:21:23.325Z,3.48
2022-11-28T10:24:35.290Z,3.30
2022-11-28T10:27:40.243Z,3.52
2022-11-28T10:35:05.166Z,2.39
2022-11-28T10:38:13.430Z,3.53
2022-11-28T10:41:25.662Z,3.56
2022-11-28T10:44:37.635Z,3.49
2022-11-28T10:47:53.154Z,3.83
2022-11-28T10:51:07.302Z,3.51
2022-11-28T10:54:26.891Z,3.70
2022-11-28T10:57:43.228Z,4.03
2022-11-28T11:00:50.393Z,4.03
2022-11-28T11:03:53.841Z,3.88
2022-11-28T11:07:19.534Z,3.87
2022-11-28T11:10:29.846Z,3.81
2022-11-28T11:13:35.080Z,4.08
2022-11-28T11:16:52.309Z,4.19
2022-11-28T11:19:55.698Z,3.90
2022-11-28T11:23:05.714Z,3.95
2022-11-28T11:26:10.501Z,3.93
2022-11-28T11:29:22.872Z,4.12
2022-11-28T11:32:29.627Z,4.15
2022-11-28T11:35:36.292Z,3.94
2022-11-28T11:38:41.341Z,4.16
2022-11-28T11:42:11.312Z,4.37
2022-11-28T11:45:29.038Z,4.27
2022-11-28T11:48:39.927Z,4.16
2022-11-28T11:51:43.095Z,4.38
2022-11-28T11:55:13.463Z,4.37
2022-11-28T11:58:21.714Z,4.49
2022-11-28T12:01:29.831Z,4.73
2022-11-28T12:04:46.256Z,4.57
2022-11-28T12:07:58.341Z,4.67
2022-11-28T12:11:13.992Z,4.51
2022-11-28T12:14:29.800Z,4.67
2022-11-28T12:17:59.376Z,4.59
2022-11-28T12:21:14.215Z,4.71
2022-11-28T12:24:22.134Z,4.46
2022-11-28T12:27:44.404Z,4.34
2022-11-28T12:31:01.473Z,4.52
2022-11-28T12:34:16.042Z,4.62
2022-11-28T12:37:55.241Z,4.46
2022-11-28T12:41:36.392Z,4.55
2022-11-28T12:44:58.405Z,4.70
2022-11-28T12:48:12.382Z,4.55
2022-11-28T12:51:30.206Z,4.52
2022-11-28T12:54:53.065Z,4.70
2022-11-28T12:58:06.916Z,4.61
2022-11-28T13:01:45.437Z,4.73
2022-11-28T13:05:17.353Z,4.61
2022-11-28T13:08:49.965Z,4.65
2022-11-28T13:12:10.651Z,4.77
2022-11-28T13:15:17.012Z,4.79
2022-11-28T13:18:31.360Z,4.70
2022-11-28T13:21:42.779Z,4.63
2022-11-28T13:25:04.049Z,4.84
2022-11-28T13:28:15.089Z,4.70
2022-11-28T13:31:24.311Z,4.64
2022-11-28T13:34:31.065Z,4.60
2022-11-28T13:41:52.826Z,4.64
2022-11-28T13:44:52.159Z,4.56
2022-11-28T13:47:55.755Z,4.59
2022-11-28T13:51:06.705Z,4.67
2022-11-28T13:54:43.002Z,4.66
2022-11-28T13:57:49.660Z,4.60
2022-11-28T14:01:11.847Z,4.59
2022-11-28T14:04:20.466Z,4.66
2022-11-28T14:07:36.148Z,4.69
2022-11-28T14:11:00.714Z,4.22
2022-11-28T14:14:36.010Z,4.53
2022-11-28T14:17:58.089Z,4.45
2022-11-28T14:21:11.315Z,4.35
2022-11-28T14:24:32.601Z,4.65
2022-11-28T14:27:40.513Z,4.42
2022-11-28T14:30:47.562Z,4.39
2022-11-28T14:34:01.415Z,4.32
2022-11-28T14:37:54.206Z,4.47
2022-11-28T14:41:04.432Z,4.28
2022-11-28T14:44:56.583Z,4.31
2022-11-28T14:48:19.027Z,4.18
2022-11-28T14:52:23.017Z,4.44
2022-11-28T14:55:30.608Z,4.25
2022-11-28T14:58:34.803Z,4.00
2022-11-28T15:01:48.224Z,4.05
2022-11-28T15:05:04.333Z,4.19
2022-11-28T15:08:21.264Z,4.15
2022-11-28T15:11:42.717Z,4.06
2022-11-28T15:14:55.205Z,4.17
2022-11-28T15:18:01.699Z,3.97
2022-11-28T15:21:15.447Z,4.09
2022-11-28T15:24:25.599Z,4.10
2022-11-28T15:27:30.716Z,4.10
2022-11-28T15:30:35.775Z,4.08
2022-11-28T15:33:40.661Z,4.31
2022-11-28T15:36:44.236Z,4.14
2022-11-28T15:39:51.000Z,3.85
2022-11-28T15:42:56.288Z,3.97
2022-11-28T15:46:02.638Z,4.00
2022-11-28T15:49:07.321Z,3.99
2022-11-28T15:52:19.212Z,3.91
2022-11-28T15:55:23.088Z,3.84
2022-11-28T15:58:29.685Z,3.74
2022-11-28T16:01:33.720Z,3.74
2022-11-28T16:04:40.433Z,4.02
2022-11-28T16:07:45.918Z,3.97
2022-11-28T16:10:50.271Z,3.81
2022-11-28T16:14:04.354Z,3.72
2022-11-28T16:17:19.551Z,3.72
2022-11-28T16:20:28.591Z,3.80
2022-11-28T16:23:35.780Z,3.83
2022-11-28T16:26:40.875Z,3.72
2022-11-28T16:29:47.433Z,3.70
2022-11-28T16:35:16.299Z,3.65
2022-11-28T16:38:25.915Z,3.44
2022-11-28T16:41:38.840Z,3.40
2022-11-28T16:44:43.117Z,3.77
2022-11-28T16:47:46.808Z,3.74
2022-11-28T16:51:31.602Z,3.62
2022-11-28T16:54:35.059Z,3.68
2022-11-28T16:57:47.951Z,3.56
2022-11-28T17:01:03.428Z,3.62
2022-11-28T17:04:12.025Z,3.07
2022-11-28T17:07:20.898Z,3.37
2022-11-28T17:10:26.073Z,3.63
2022-11-28T17:13:31.040Z,3.47
2022-11-28T17:16:40.104Z,3.41
2022-11-28T17:19:47.003Z,3.40
2022-11-28T17:22:54.413Z,3.46
2022-11-28T17:25:57.896Z,3.43
2022-11-28T17:29:01.373Z,3.32
2022-11-28T17:32:05.226Z,3.44
2022-11-28T17:35:14.766Z,3.52
2022-11-28T17:38:20.761Z,3.40
2022-11-28T17:41:25.703Z,3.18
2022-11-28T17:44:33.679Z,3.42
2022-11-28T17:47:37.086Z,3.50
2022-11-28T17:50:40.942Z,3.33
2022-11-28T17:53:53.675Z,3.26
2022-11-28T17:57:00.133Z,3.33
2022-11-28T18:00:06.519Z,3.37
2022-11-28T18:03:18.336Z,3.23
2022-11-28T18:06:26.022Z,3.30
2022-11-28T18:09:31.738Z,3.15
2022-11-28T18:12:35.338Z,3.37
2022-11-28T18:15:40.250Z,3.31
2022-11-28T18:18:48.642Z,3.26
2022-11-28T18:21:52.175Z,3.31
2022-11-28T18:24:57.198Z,3.55
2022-11-28T18:28:01.036Z,3.24
2022-11-28T18:31:09.873Z,3.28
2022-11-28T18:34:14.572Z,3.11
2022-11-28T18:37:18.475Z,3.18
2022-11-28T18:40:24.077Z,2.97
2022-11-28T18:43:30.141Z,3.10
2022-11-28T18:46:34.983Z,3.15
2022-11-28T18:49:39.369Z,3.02
2022-11-28T18:52:45.424Z,3.05
2022-11-28T18:55:53.159Z,3.20
2022-11-28T18:58:58.620Z,3.24
2022-11-28T19:02:02.821Z,3.16
2022-11-28T19:05:07.597Z,3.22
2022-11-28T19:08:11.388Z,3.15
2022-11-28T19:11:18.327Z,3.09
2022-11-28T19:14:26.200Z,3.28
2022-11-28T19:17:30.023Z,3.05
2022-11-28T19:20:33.869Z,3.26
2022-11-28T19:23:38.638Z,3.01
2022-11-28T19:26:43.738Z,3.03
2022-11-28T19:29:49.693Z,2.96
2022-11-28T19:32:53.375Z,3.29
2022-11-28T19:35:56.621Z,3.25
2022-11-28T19:39:00.687Z,3.02
2022-11-28T19:42:05.634Z,3.07
2022-11-28T19:45:10.555Z,3.16
2022-11-28T19:48:14.102Z,3.01
2022-11-28T19:51:24.961Z,2.97
2022-11-28T19:54:43.798Z,2.96
2022-11-28T19:57:59.978Z,2.87
2022-11-28T20:01:13.764Z,3.33
2022-11-28T20:04:17.543Z,2.99
2022-11-28T20:07:23.223Z,2.79
2022-11-28T20:10:27.692Z,2.99
2022-11-28T20:13:34.163Z,3.00
2022-11-28T20:16:38.933Z,3.29
2022-11-28T20:19:42.619Z,3.39
2022-11-28T20:22:46.186Z,3.25
2022-11-28T20:25:49.909Z,3.20
2022-11-28T20:29:28.696Z,3.37
2022-11-28T20:32:32.066Z,3.58
2022-11-28T20:35:35.402Z,3.31
2022-11-28T20:38:38.784Z,3.29
2022-11-28T20:41:42.280Z,3.19
2022-11-28T20:44:48.052Z,3.23
2022-11-28T20:47:51.730Z,3.56
2022-11-28T20:50:55.611Z,3.78
2022-11-28T20:54:00.233Z,3.22
2022-11-28T20:57:20.879Z,3.01
2022-11-28T21:00:29.372Z,3.28
2022-11-28T21:03:33.545Z,3.24
2022-11-28T21:06:38.211Z,3.03
2022-11-28T21:09:41.866Z,3.55
2022-11-28T21:12:45.366Z,3.17
2022-11-28T21:15:50.594Z,3.29
2022-11-28T21:18:55.635Z,3.45
2022-11-28T21:21:59.947Z,3.13
2022-11-28T21:25:03.468Z,3.18
2022-11-28T21:28:07.107Z,3.07
2022-11-28T21:31:14.774Z,3.14
2022-11-28T21:34:19.217Z,3.13
2022-11-28T21:37:22.556Z,3.11
2022-11-28T21:40:26.023Z,2.88
2022-11-28T21:43:31.872Z,3.06
2022-11-28T21:46:36.847Z,3.16
2022-11-28T21:49:44.207Z,3.26
2022-11-28T21:52:51.380Z,3.05
2022-11-28T21:55:55.533Z,3.02
2022-11-28T21:59:00.140Z,3.09
2022-11-28T22:02:10.049Z,3.08
2022-11-28T22:05:15.867Z,3.10
2022-11-28T22:08:19.983Z,3.17
2022-11-28T22:11:24.225Z,3.16
2022-11-28T22:14:36.392Z,3.08
2022-11-28T22:17:42.199Z,2.81
2022-11-28T22:20:50.247Z,2.87
2022-11-28T22:23:57.456Z,2.86
2022-11-28T22:27:01.009Z,2.70
2022-11-28T22:30:07.934Z,3.00
2022-11-28T22:34:58.644Z,2.35
2022-11-28T22:38:02.473Z,2.47
2022-11-28T22:41:10.044Z,3.04
2022-11-28T22:44:14.054Z,3.06
2022-11-28T22:47:17.360Z,2.64
2022-11-28T22:50:22.892Z,2.81
2022-11-28T22:53:28.008Z,2.84
2022-11-28T22:56:33.084Z,2.98
2022-11-28T22:59:38.714Z,2.94
2022-11-28T23:02:42.056Z,3.17
2022-11-28T23:05:54.043Z,2.95
2022-11-28T23:08:58.648Z,2.99
2022-11-28T23:12:03.248Z,2.81
2022-11-28T23:15:11.056Z,2.98
2022-11-28T23:18:15.307Z,2.83
2022-11-28T23:21:22.488Z,2.87
2022-11-28T23:24:26.203Z,2.84
2022-11-28T23:27:30.166Z,2.93
2022-11-28T23:30:33.743Z,2.51
2022-11-28T23:33:38.646Z,2.88
2022-11-28T23:36:44.945Z,2.86
2022-11-28T23:39:49.979Z,2.51
2022-11-28T23:42:53.805Z,2.64
2022-11-28T23:45:57.273Z,2.76
2022-11-28T23:49:15.144Z,2.72
2022-11-28T23:52:20.245Z,2.73
2022-11-28T23:55:26.020Z,2.83
2022-11-28T23:58:31.345Z,2.83
